createdAt,value
2019-02-18T00:01:36.141Z,52.68
2019-02-18T00:04:03.106Z,53.10
2019-02-18T00:06:30.009Z,53.41
2019-02-18T00:08:56.707Z,53.81
2019-02-18T00:11:23.290Z,53.51
2019-02-18T00:13:50.147Z,53.61
2019-02-18T00:16:17.038Z,53.18
2019-02-18T00:18:43.667Z,53.63
2019-02-18T00:21:10.271Z,53.72
2019-02-18T00:23:37.158Z,54.14
2019-02-18T00:26:05.016Z,54.37
2019-02-18T00:28:31.685Z,54.60
2019-02-18T00:30:58.347Z,54.06
2019-02-18T00:33:24.958Z,55.12
2019-02-18T00:35:51.617Z,55.03
2019-02-18T00:38:18.531Z,54.28
2019-02-18T00:40:45.538Z,53.71
2019-02-18T00:43:12.392Z,53.83
2019-02-18T00:45:39.189Z,54.10
2019-02-18T00:48:06.228Z,54.01
2019-02-18T00:50:32.962Z,54.55
2019-02-18T00:52:59.654Z,54.85
2019-02-18T00:55:26.679Z,54.71
2019-02-18T00:57:53.327Z,55.01
2019-02-18T01:00:19.924Z,54.69
2019-02-18T01:02:46.737Z,54.04
2019-02-18T01:05:13.628Z,54.40
2019-02-18T01:07:41.131Z,54.24
2019-02-18T01:10:07.877Z,54.65
2019-02-18T01:12:34.550Z,55.45
2019-02-18T01:15:01.237Z,55.07
2019-02-18T01:17:28.181Z,54.69
2019-02-18T01:19:54.789Z,54.59
2019-02-18T01:22:21.464Z,54.83
2019-02-18T01:24:48.077Z,55.26
2019-02-18T01:27:14.674Z,54.57
2019-02-18T01:29:42.095Z,55.03
2019-02-18T01:32:08.801Z,54.84
2019-02-18T01:34:35.581Z,54.78
2019-02-18T01:37:02.169Z,55.34
2019-02-18T01:39:29.110Z,55.85
2019-02-18T01:41:56.479Z,55.70
2019-02-18T01:44:23.364Z,55.18
2019-02-18T01:46:50.029Z,55.49
2019-02-18T01:49:16.681Z,55.71
2019-02-18T01:51:43.717Z,55.59
2019-02-18T01:54:10.444Z,55.08
2019-02-18T01:56:37.059Z,54.95
2019-02-18T01:59:04.200Z,55.08
2019-02-18T02:01:31.366Z,55.21
2019-02-18T02:03:58.348Z,55.52
2019-02-18T02:06:24.921Z,55.27
2019-02-18T02:08:51.641Z,55.21
2019-02-18T02:11:18.630Z,55.91
2019-02-18T02:13:45.895Z,55.85
2019-02-18T02:16:14.275Z,55.70
2019-02-18T02:18:41.003Z,55.60
2019-02-18T02:21:07.966Z,55.60
2019-02-18T02:23:34.642Z,55.09
2019-02-18T02:26:01.289Z,54.69
2019-02-18T02:28:27.958Z,54.56
2019-02-18T02:30:54.852Z,54.33
2019-02-18T02:33:21.525Z,54.50
2019-02-18T02:35:48.425Z,54.71
2019-02-18T02:38:16.505Z,55.33
2019-02-18T02:40:45.771Z,55.56
2019-02-18T02:43:12.403Z,55.22
2019-02-18T02:48:19.564Z,56.10
2019-02-18T02:50:46.329Z,56.20
2019-02-18T02:53:13.151Z,56.38
2019-02-18T02:55:40.109Z,56.12
2019-02-18T02:58:06.735Z,55.94
2019-02-18T03:00:33.447Z,55.61
2019-02-18T03:03:00.222Z,54.95
2019-02-18T03:05:27.128Z,54.27
2019-02-18T03:07:53.829Z,55.20
2019-02-18T03:10:20.523Z,55.71
2019-02-18T03:12:47.392Z,55.17
2019-02-18T03:15:15.775Z,55.12
2019-02-18T03:17:42.506Z,55.25
2019-02-18T03:20:09.372Z,55.13
2019-02-18T03:22:36.034Z,55.08
2019-02-18T03:25:02.962Z,55.14
2019-02-18T03:27:29.802Z,55.42
2019-02-18T03:29:56.736Z,55.32
2019-02-18T03:32:23.888Z,55.20
2019-02-18T03:34:50.793Z,55.44
2019-02-18T03:37:17.697Z,55.63
2019-02-18T03:39:46.121Z,55.49
2019-02-18T03:42:13.963Z,55.10
2019-02-18T03:44:40.803Z,55.19
2019-02-18T03:47:07.469Z,55.41
2019-02-18T03:49:34.176Z,54.85
2019-02-18T03:52:00.935Z,55.00
2019-02-18T03:54:27.873Z,54.88
2019-02-18T03:56:55.007Z,54.99
2019-02-18T03:59:21.961Z,54.72
2019-02-18T04:01:49.017Z,54.60
2019-02-18T04:04:16.382Z,54.62
2019-02-18T04:06:43.181Z,55.42
2019-02-18T04:09:10.159Z,55.33
2019-02-18T04:11:37.056Z,56.02
2019-02-18T04:14:03.766Z,56.00
2019-02-18T04:16:30.430Z,55.69
2019-02-18T04:18:57.671Z,55.19
2019-02-18T04:21:24.432Z,55.46
2019-02-18T04:23:51.073Z,55.61
2019-02-18T04:26:17.745Z,55.79
2019-02-18T04:28:44.488Z,56.27
2019-02-18T04:31:11.103Z,56.24
2019-02-18T04:33:37.746Z,55.72
2019-02-18T04:36:04.567Z,55.97
2019-02-18T04:38:31.194Z,56.11
2019-02-18T04:40:57.921Z,55.42
2019-02-18T04:43:24.924Z,55.92
2019-02-18T04:45:51.678Z,56.39
2019-02-18T04:48:19.205Z,56.86
2019-02-18T04:50:47.052Z,56.74
2019-02-18T04:53:13.800Z,56.48
2019-02-18T04:55:40.749Z,56.40
2019-02-18T04:58:07.300Z,56.70
2019-02-18T05:00:33.950Z,56.53
2019-02-18T05:03:01.208Z,56.10
2019-02-18T05:05:28.174Z,56.06
2019-02-18T05:07:56.455Z,56.21
2019-02-18T05:10:23.242Z,55.81
2019-02-18T05:12:50.061Z,55.27
2019-02-18T05:15:17.824Z,54.80
2019-02-18T05:17:44.403Z,54.69
2019-02-18T05:20:11.147Z,55.06
2019-02-18T05:22:38.244Z,55.12
2019-02-18T05:25:05.252Z,55.15
2019-02-18T05:27:33.529Z,55.69
2019-02-18T05:30:00.679Z,55.76
2019-02-18T05:32:27.317Z,55.84
2019-02-18T05:34:54.214Z,56.14
2019-02-18T05:37:20.882Z,55.75
2019-02-18T05:39:47.706Z,55.58
2019-02-18T05:42:14.391Z,55.44
2019-02-18T05:44:41.847Z,55.09
2019-02-18T05:47:08.459Z,55.28
2019-02-18T05:49:38.294Z,55.30
2019-02-18T05:52:05.206Z,54.92
2019-02-18T05:54:31.798Z,54.78
2019-02-18T05:56:58.670Z,55.49
2019-02-18T05:59:25.675Z,55.58
2019-02-18T06:01:52.636Z,55.75
2019-02-18T06:04:19.583Z,55.71
2019-02-18T06:06:47.600Z,56.03
2019-02-18T06:09:14.235Z,56.36
2019-02-18T06:11:40.854Z,55.27
2019-02-18T06:14:07.743Z,54.79
2019-02-18T06:16:34.500Z,54.73
2019-02-18T06:19:01.103Z,54.91
2019-02-18T06:21:27.919Z,54.94
2019-02-18T06:23:54.809Z,55.32
2019-02-18T06:26:22.135Z,55.26
2019-02-18T06:28:49.004Z,54.90
2019-02-18T06:31:15.963Z,55.42
2019-02-18T06:33:42.704Z,56.13
2019-02-18T06:36:09.348Z,56.21
2019-02-18T06:38:36.085Z,56.09
2019-02-18T06:41:02.680Z,55.84
2019-02-18T06:43:29.592Z,55.53
2019-02-18T06:45:58.493Z,55.52
2019-02-18T06:48:25.475Z,55.70
2019-02-18T06:50:52.202Z,55.22
2019-02-18T06:53:18.929Z,54.62
2019-02-18T06:55:45.534Z,54.52
2019-02-18T06:58:15.310Z,54.16
2019-02-18T07:00:41.923Z,53.54
2019-02-18T07:03:08.543Z,53.15
2019-02-18T07:05:35.818Z,52.64
2019-02-18T07:08:02.512Z,53.22
2019-02-18T07:10:29.200Z,53.36
2019-02-18T07:12:55.887Z,53.10
2019-02-18T07:15:22.917Z,53.12
2019-02-18T07:17:49.720Z,53.18
2019-02-18T07:20:16.707Z,52.90
2019-02-18T07:22:43.419Z,52.50
2019-02-18T07:25:13.762Z,52.54
2019-02-18T07:27:40.398Z,51.92
2019-02-18T07:30:09.519Z,51.15
2019-02-18T07:32:36.928Z,51.61
2019-02-18T07:35:06.146Z,51.52
2019-02-18T07:37:35.818Z,50.75
2019-02-18T07:40:08.933Z,49.86
2019-02-18T07:42:39.028Z,49.56
2019-02-18T07:45:07.873Z,49.16
2019-02-18T07:47:39.298Z,48.34
2019-02-18T07:50:06.867Z,48.74
2019-02-18T07:52:34.443Z,47.80
2019-02-18T07:55:04.209Z,48.24
2019-02-18T07:57:30.544Z,47.57
2019-02-18T07:59:58.300Z,47.29
2019-02-18T08:02:25.548Z,45.40
2019-02-18T08:04:52.584Z,45.91
2019-02-18T08:07:19.697Z,45.32
2019-02-18T08:09:46.340Z,44.61
2019-02-18T08:12:12.975Z,44.28
2019-02-18T08:14:39.711Z,43.97
2019-02-18T08:17:06.498Z,42.99
2019-02-18T08:19:33.164Z,42.79
2019-02-18T08:21:59.910Z,43.60
2019-02-18T08:24:26.576Z,42.14
2019-02-18T08:26:53.250Z,42.37
2019-02-18T08:29:20.077Z,42.08
2019-02-18T08:31:46.730Z,40.64
2019-02-18T08:34:13.661Z,40.74
2019-02-18T08:36:40.256Z,40.24
2019-02-18T08:39:06.849Z,40.43
2019-02-18T08:41:34.181Z,39.98
2019-02-18T08:44:00.929Z,39.03
2019-02-18T08:46:28.147Z,38.99
2019-02-18T08:48:55.029Z,37.75
2019-02-18T08:51:24.241Z,38.67
2019-02-18T08:53:51.166Z,38.10
2019-02-18T08:56:21.109Z,37.83
2019-02-18T08:58:47.480Z,37.64
2019-02-18T09:01:14.135Z,36.59
2019-02-18T09:03:42.462Z,37.42
2019-02-18T09:06:09.961Z,36.77
2019-02-18T09:08:37.294Z,36.52
2019-02-18T09:11:06.261Z,35.94
2019-02-18T09:13:32.875Z,36.25
2019-02-18T09:16:00.566Z,35.76
2019-02-18T09:18:29.754Z,35.79
2019-02-18T09:20:58.527Z,35.65
2019-02-18T09:23:28.419Z,35.32
2019-02-18T09:25:55.328Z,35.10
2019-02-18T09:28:21.970Z,34.27
2019-02-18T09:30:48.604Z,34.51
2019-02-18T09:33:15.351Z,34.39
2019-02-18T09:35:43.043Z,34.35
2019-02-18T09:38:09.981Z,34.27
2019-02-18T09:40:44.255Z,33.46
2019-02-18T09:43:08.175Z,33.25
2019-02-18T09:45:37.091Z,33.87
2019-02-18T09:48:07.317Z,32.74
2019-02-18T09:50:35.661Z,33.61
2019-02-18T09:53:04.738Z,32.51
2019-02-18T09:55:35.139Z,32.20
2019-02-18T09:58:02.900Z,32.26
2019-02-18T10:00:31.160Z,31.93
2019-02-18T10:02:58.859Z,31.42
2019-02-18T10:08:13.834Z,31.72
2019-02-18T10:10:43.721Z,30.85
2019-02-18T10:13:16.508Z,30.42
2019-02-18T10:15:46.134Z,30.41
2019-02-18T10:18:13.312Z,30.03
2019-02-18T10:20:44.685Z,30.95
2019-02-18T10:23:16.365Z,30.45
2019-02-18T10:25:48.247Z,30.40
2019-02-18T10:28:15.714Z,30.44
2019-02-18T10:30:44.869Z,29.83
2019-02-18T10:33:14.560Z,30.88
2019-02-18T10:35:42.656Z,30.50
2019-02-18T10:38:10.479Z,29.72
2019-02-18T10:40:39.554Z,29.79
2019-02-18T10:43:07.762Z,29.82
2019-02-18T10:45:36.910Z,29.99
2019-02-18T10:48:07.403Z,29.95
2019-02-18T10:50:38.226Z,30.37
2019-02-18T10:53:06.321Z,30.37
2019-02-18T10:55:34.502Z,30.18
2019-02-18T10:58:01.192Z,30.10
2019-02-18T11:00:30.076Z,29.72
2019-02-18T11:02:56.856Z,29.39
2019-02-18T11:05:24.216Z,28.91
2019-02-18T11:07:54.806Z,28.89
2019-02-18T11:10:23.560Z,28.66
2019-02-18T11:12:51.411Z,29.05
2019-02-18T11:15:25.623Z,28.18
2019-02-18T11:17:55.713Z,28.96
2019-02-18T11:20:24.245Z,29.31
2019-02-18T11:22:52.373Z,28.89
2019-02-18T11:25:19.181Z,28.94
2019-02-18T11:27:45.853Z,28.70
2019-02-18T11:30:14.533Z,29.52
2019-02-18T11:32:41.806Z,29.38
2019-02-18T11:35:09.532Z,28.95
2019-02-18T11:37:37.717Z,29.39
2019-02-18T11:40:04.767Z,29.00
2019-02-18T11:42:32.655Z,28.45
2019-02-18T11:44:59.522Z,28.62
2019-02-18T11:47:29.329Z,27.73
2019-02-18T11:49:57.009Z,29.20
2019-02-18T11:52:24.321Z,29.44
2019-02-18T11:54:51.032Z,28.98
2019-02-18T11:57:23.918Z,29.16
2019-02-18T11:59:52.958Z,28.72
2019-02-18T12:02:22.984Z,29.32
2019-02-18T12:04:53.255Z,28.81
2019-02-18T12:07:24.054Z,28.58
2019-02-18T12:09:50.793Z,28.27
2019-02-18T12:15:05.809Z,28.26
2019-02-18T12:17:35.910Z,28.19
2019-02-18T12:20:03.914Z,27.27
2019-02-18T12:22:32.220Z,28.04
2019-02-18T12:25:01.046Z,28.20
2019-02-18T12:27:32.136Z,27.92
2019-02-18T12:30:06.911Z,26.55
2019-02-18T12:32:30.803Z,26.89
2019-02-18T12:34:58.375Z,26.68
2019-02-18T12:37:29.945Z,27.08
2019-02-18T12:39:58.434Z,27.45
2019-02-18T12:42:27.598Z,26.16
2019-02-18T12:44:54.847Z,25.75
2019-02-18T12:47:22.803Z,26.02
2019-02-18T12:49:51.052Z,26.51
2019-02-18T12:52:17.955Z,26.03
2019-02-18T12:54:44.797Z,25.25
2019-02-18T12:57:12.158Z,25.17
2019-02-18T12:59:39.243Z,25.98
2019-02-18T13:02:05.931Z,25.35
2019-02-18T13:04:32.823Z,24.96
2019-02-18T13:06:59.770Z,24.87
2019-02-18T13:09:26.789Z,24.73
2019-02-18T13:11:59.042Z,24.78
2019-02-18T13:14:23.987Z,24.42
2019-02-18T13:16:50.711Z,24.91
2019-02-18T13:19:17.360Z,24.46
2019-02-18T13:21:44.089Z,24.58
2019-02-18T13:24:10.926Z,24.97
2019-02-18T13:26:38.212Z,24.47
2019-02-18T13:29:05.206Z,25.70
2019-02-18T13:31:32.332Z,25.70
2019-02-18T13:33:59.015Z,24.98
2019-02-18T13:36:26.638Z,23.65
2019-02-18T13:38:54.386Z,24.23
2019-02-18T13:41:21.141Z,24.46
2019-02-18T13:43:48.143Z,24.46
2019-02-18T13:46:15.302Z,23.78
2019-02-18T13:48:42.510Z,23.72
2019-02-18T13:51:09.515Z,24.04
2019-02-18T13:53:36.220Z,23.83
2019-02-18T13:56:02.860Z,23.95
2019-02-18T13:58:29.797Z,23.93
2019-02-18T14:00:56.818Z,23.47
2019-02-18T14:03:24.826Z,24.24
2019-02-18T14:05:51.581Z,23.98
2019-02-18T14:08:18.567Z,23.90
2019-02-18T14:10:45.382Z,23.27
2019-02-18T14:13:12.111Z,23.74
2019-02-18T14:15:39.430Z,23.49
2019-02-18T14:18:06.343Z,23.94
2019-02-18T14:20:33.011Z,24.67
2019-02-18T14:23:00.118Z,24.09
2019-02-18T14:25:26.790Z,23.94
2019-02-18T14:27:55.195Z,23.80
2019-02-18T14:30:21.893Z,23.85
2019-02-18T14:32:48.626Z,24.29
2019-02-18T14:35:15.278Z,24.09
2019-02-18T14:37:42.183Z,24.80
2019-02-18T14:40:09.448Z,24.63
2019-02-18T14:42:37.391Z,24.08
2019-02-18T14:45:04.445Z,25.13
2019-02-18T14:47:31.384Z,25.29
2019-02-18T14:49:58.329Z,25.54
2019-02-18T14:52:25.797Z,26.32
2019-02-18T14:54:52.487Z,25.71
2019-02-18T14:57:19.639Z,26.18
2019-02-18T14:59:46.580Z,25.90
2019-02-18T15:02:13.832Z,26.22
2019-02-18T15:04:40.804Z,26.66
2019-02-18T15:07:07.632Z,26.72
2019-02-18T15:09:34.731Z,27.22
2019-02-18T15:12:01.946Z,27.12
2019-02-18T15:14:28.971Z,26.91
2019-02-18T15:16:56.509Z,26.86
2019-02-18T15:19:23.161Z,27.44
2019-02-18T15:21:49.987Z,27.33
2019-02-18T15:24:16.888Z,27.40
2019-02-18T15:26:44.436Z,27.42
2019-02-18T15:29:11.493Z,27.73
2019-02-18T15:31:38.404Z,27.81
2019-02-18T15:34:05.772Z,27.71
2019-02-18T15:36:32.422Z,27.94
2019-02-18T15:38:59.390Z,28.00
2019-02-18T15:41:26.760Z,27.90
2019-02-18T15:43:53.443Z,28.25
2019-02-18T15:46:20.303Z,28.63
2019-02-18T15:48:46.971Z,28.90
2019-02-18T15:51:13.885Z,28.92
2019-02-18T15:53:40.805Z,29.23
2019-02-18T15:56:14.816Z,29.34
2019-02-18T15:58:41.619Z,29.67
2019-02-18T16:01:08.805Z,30.16
2019-02-18T16:03:35.722Z,30.07
2019-02-18T16:06:02.369Z,30.82
2019-02-18T16:08:29.240Z,30.77
2019-02-18T16:10:57.156Z,30.72
2019-02-18T16:13:23.844Z,30.93
2019-02-18T16:15:50.943Z,31.07
2019-02-18T16:18:17.972Z,31.50
2019-02-18T16:20:45.105Z,31.63
2019-02-18T16:23:12.067Z,32.09
2019-02-18T16:25:38.908Z,32.29
2019-02-18T16:28:06.169Z,32.70
2019-02-18T16:30:33.082Z,33.09
2019-02-18T16:32:59.975Z,33.46
2019-02-18T16:35:27.573Z,33.51
2019-02-18T16:37:54.336Z,33.97
2019-02-18T16:40:21.233Z,34.16
2019-02-18T16:42:48.113Z,34.37
2019-02-18T16:45:15.400Z,34.87
2019-02-18T16:47:42.221Z,35.28
2019-02-18T16:50:08.950Z,35.39
2019-02-18T16:52:36.973Z,35.56
2019-02-18T16:55:03.716Z,35.75
2019-02-18T16:57:32.148Z,35.99
2019-02-18T16:59:59.562Z,36.38
2019-02-18T17:02:28.171Z,36.58
2019-02-18T17:04:55.674Z,36.66
2019-02-18T17:07:22.562Z,36.87
2019-02-18T17:09:50.005Z,36.87
2019-02-18T17:12:17.852Z,36.88
2019-02-18T17:14:46.352Z,36.90
2019-02-18T17:17:13.984Z,37.20
2019-02-18T17:19:41.507Z,37.54
2019-02-18T17:22:08.365Z,37.80
2019-02-18T17:24:35.563Z,37.65
2019-02-18T17:27:02.637Z,37.54
2019-02-18T17:29:30.209Z,37.55
2019-02-18T17:31:58.334Z,37.93
2019-02-18T17:34:25.289Z,38.49
2019-02-18T17:36:52.195Z,38.71
2019-02-18T17:39:19.651Z,39.48
2019-02-18T17:41:47.148Z,39.46
2019-02-18T17:44:19.926Z,39.58
2019-02-18T17:46:43.146Z,39.58
2019-02-18T17:49:09.802Z,39.84
2019-02-18T17:51:37.593Z,40.55
2019-02-18T17:54:05.062Z,40.57
2019-02-18T17:56:32.217Z,40.74
2019-02-18T17:59:00.460Z,40.67
2019-02-18T18:01:27.458Z,40.91
2019-02-18T18:03:54.927Z,41.10
2019-02-18T18:06:24.057Z,41.55
2019-02-18T18:08:51.431Z,41.76
2019-02-18T18:11:19.155Z,41.79
2019-02-18T18:13:46.234Z,42.06
2019-02-18T18:16:12.976Z,42.26
2019-02-18T18:18:40.381Z,42.12
2019-02-18T18:21:07.131Z,42.32
2019-02-18T18:23:34.155Z,42.68
2019-02-18T18:26:00.954Z,43.53
2019-02-18T18:28:27.969Z,43.04
2019-02-18T18:30:55.160Z,43.32
2019-02-18T18:33:21.833Z,43.62
2019-02-18T18:35:48.876Z,44.09
2019-02-18T18:38:15.849Z,44.12
2019-02-18T18:40:42.854Z,43.94
2019-02-18T18:43:09.784Z,44.16
2019-02-18T18:45:38.697Z,44.14
2019-02-18T18:48:08.443Z,44.39
2019-02-18T18:50:37.110Z,45.20
2019-02-18T18:53:07.150Z,45.15
2019-02-18T18:55:35.580Z,45.11
2019-02-18T18:58:03.447Z,44.94
2019-02-18T19:00:33.390Z,44.86
2019-02-18T19:03:05.653Z,45.39
2019-02-18T19:05:33.261Z,45.20
2019-02-18T19:08:01.772Z,45.30
2019-02-18T19:10:29.831Z,45.32
2019-02-18T19:12:59.704Z,44.97
2019-02-18T19:15:29.880Z,45.03
2019-02-18T19:17:58.731Z,45.29
2019-02-18T19:23:16.059Z,45.13
2019-02-18T19:25:43.708Z,45.97
2019-02-18T19:28:14.558Z,45.52
2019-02-18T19:30:45.247Z,45.58
2019-02-18T19:33:14.795Z,45.91
2019-02-18T19:35:42.152Z,46.24
2019-02-18T19:38:09.837Z,46.43
2019-02-18T19:40:37.997Z,46.68
2019-02-18T19:43:05.437Z,46.23
2019-02-18T19:45:34.348Z,46.38
2019-02-18T19:48:04.031Z,46.74
2019-02-18T19:50:31.422Z,46.85
2019-02-18T19:53:13.712Z,47.41
2019-02-18T19:55:29.727Z,48.36
2019-02-18T19:57:58.953Z,48.03
2019-02-18T20:00:28.291Z,47.79
2019-02-18T20:02:56.074Z,48.01
2019-02-18T20:05:22.668Z,47.83
2019-02-18T20:07:49.587Z,47.94
2019-02-18T20:10:16.241Z,47.94
2019-02-18T20:12:43.127Z,48.10
2019-02-18T20:15:12.089Z,48.66
2019-02-18T20:17:40.429Z,49.02
2019-02-18T20:20:07.342Z,49.16
2019-02-18T20:22:34.669Z,49.29
2019-02-18T20:25:01.291Z,48.97
2019-02-18T20:27:28.224Z,48.97
2019-02-18T20:29:55.009Z,47.79
2019-02-18T20:32:23.539Z,47.83
2019-02-18T20:34:50.768Z,48.74
2019-02-18T20:37:17.967Z,49.18
2019-02-18T20:39:45.553Z,49.29
2019-02-18T20:42:13.510Z,49.41
2019-02-18T20:47:11.805Z,49.20
2019-02-18T20:49:38.892Z,49.17
2019-02-18T20:52:05.564Z,49.13
2019-02-18T20:54:32.208Z,49.34
2019-02-18T20:56:58.845Z,48.60
2019-02-18T20:59:27.972Z,48.95
2019-02-18T21:01:54.886Z,50.43
2019-02-18T21:04:21.823Z,50.94
2019-02-18T21:06:48.606Z,51.56
2019-02-18T21:09:15.295Z,51.08
2019-02-18T21:11:42.313Z,51.03
2019-02-18T21:14:15.899Z,51.49
2019-02-18T21:16:39.211Z,51.44
2019-02-18T21:19:06.991Z,51.98
2019-02-18T21:21:33.848Z,51.83
2019-02-18T21:24:00.746Z,52.09
2019-02-18T21:26:27.386Z,52.06
2019-02-18T21:28:54.332Z,52.08
2019-02-18T21:31:22.223Z,52.08
2019-02-18T21:33:49.282Z,52.06
2019-02-18T21:36:16.384Z,52.20
2019-02-18T21:38:43.116Z,51.80
2019-02-18T21:41:10.026Z,51.53
2019-02-18T21:43:36.631Z,51.22
2019-02-18T21:46:03.296Z,51.64
2019-02-18T21:48:30.188Z,51.83
2019-02-18T21:50:57.370Z,52.72
2019-02-18T21:53:24.223Z,53.08
2019-02-18T21:55:50.803Z,54.18
2019-02-18T21:58:17.419Z,54.03
2019-02-18T22:00:44.377Z,54.52
2019-02-18T22:03:11.565Z,54.44
2019-02-18T22:05:39.799Z,53.66
2019-02-18T22:08:06.708Z,53.62
2019-02-18T22:10:33.632Z,53.54
2019-02-18T22:13:00.680Z,54.08
2019-02-18T22:15:27.583Z,53.58
2019-02-18T22:17:54.714Z,53.81
2019-02-18T22:20:21.308Z,54.29
2019-02-18T22:22:47.983Z,53.96
2019-02-18T22:25:14.862Z,54.61
2019-02-18T22:27:41.795Z,54.71
2019-02-18T22:30:10.318Z,54.57
2019-02-18T22:32:36.946Z,54.62
2019-02-18T22:35:03.809Z,54.09
2019-02-18T22:37:31.051Z,54.38
2019-02-18T22:39:58.032Z,54.39
2019-02-18T22:42:24.614Z,54.15
2019-02-18T22:44:51.265Z,54.52
2019-02-18T22:47:18.069Z,54.69
2019-02-18T22:49:44.869Z,54.48
2019-02-18T22:52:11.507Z,54.33
2019-02-18T22:54:38.251Z,54.15
2019-02-18T22:57:05.360Z,54.38
2019-02-18T22:59:32.334Z,54.16
2019-02-18T23:01:58.964Z,54.54
2019-02-18T23:04:25.699Z,54.71
2019-02-18T23:06:52.378Z,54.75
2019-02-18T23:09:18.966Z,54.64
2019-02-18T23:11:45.591Z,54.90
2019-02-18T23:14:12.535Z,55.06
2019-02-18T23:16:41.104Z,55.24
2019-02-18T23:19:07.790Z,55.42
2019-02-18T23:21:34.705Z,55.76
2019-02-18T23:24:01.937Z,55.69
2019-02-18T23:26:28.756Z,55.78
2019-02-18T23:28:55.697Z,56.11
2019-02-18T23:31:22.301Z,56.24
2019-02-18T23:33:48.946Z,56.31
2019-02-18T23:36:15.768Z,55.84
2019-02-18T23:38:42.352Z,55.76
2019-02-18T23:41:09.019Z,55.54
2019-02-18T23:43:36.035Z,55.82
2019-02-18T23:46:03.213Z,55.89
2019-02-18T23:48:30.060Z,56.41
2019-02-18T23:50:57.286Z,56.40
2019-02-18T23:53:23.970Z,56.86
2019-02-18T23:55:51.117Z,56.48
2019-02-18T23:58:18.037Z,56.60
